Time;durP1;ratioP1;P1;durP2;ratioP2;P2;SDS_P1;SDS_P2;PMS_P1;PMS_P2;Temp;Humidity;BMP_temperature;BMP_pressure;BME280_temperature;BME280_humidity;BME280_pressure;Samples;Min_cycle;Max_cycle;Signal;HPM_P1;HPM_P2
2022/01/04 00:00:44;;;;;;;7.40;5.47;;;;;;;20.14;38.82;98991.72;5132792;28;20048;-63
2022/01/04 00:03:10;;;;;;;7.03;5.22;;;;;;;20.14;38.82;98983.38;5132833;27;20051;-63
2022/01/04 00:05:36;;;;;;;8.15;5.50;;;;;;;20.15;38.80;98978.66;5132673;27;20050;-63
2022/01/04 00:08:02;;;;;;;7.18;5.25;;;;;;;20.13;38.88;98979.03;5132167;27;20080;-63
2022/01/04 00:10:29;;;;;;;7.18;5.28;;;;;;;20.13;38.92;98981.78;5132514;27;20083;-63
2022/01/04 00:15:42;;;;;;;7.97;5.57;;;;;;;20.14;38.93;98966.72;5132606;28;20061;-63
2022/01/04 00:18:07;;;;;;;7.95;5.57;;;;;;;20.13;38.95;98961.56;5132541;27;20404;-63
2022/01/04 00:20:33;;;;;;;8.85;5.35;;;;;;;20.15;38.79;98973.09;5132545;27;20039;-63
2022/01/04 00:22:58;;;;;;;8.18;6.07;;;;;;;20.15;38.92;98973.91;5132662;27;20039;-63
2022/01/04 00:25:24;;;;;;;6.95;5.10;;;;;;;20.15;38.77;98975.88;5132421;27;20521;-63
2022/01/04 00:27:50;;;;;;;8.57;5.60;;;;;;;20.15;38.76;98973.09;5132468;27;20538;-63
2022/01/04 00:30:15;;;;;;;7.15;5.47;;;;;;;20.16;38.94;98960.81;5132196;27;20085;-63
2022/01/04 00:32:41;;;;;;;8.25;5.35;;;;;;;20.16;38.79;98947.72;5132223;27;20060;-63
2022/01/04 00:35:07;;;;;;;8.00;5.95;;;;;;;20.17;38.67;98945.75;5132145;27;20035;-63
2022/01/04 00:37:32;;;;;;;8.00;5.50;;;;;;;20.17;38.86;98941.00;5132114;28;20066;-63
2022/01/04 00:39:59;;;;;;;8.20;5.60;;;;;;;20.16;38.75;98949.72;5132065;28;20114;-63
2022/01/04 00:42:24;;;;;;;9.20;6.10;;;;;;;20.17;38.82;98948.53;5131874;27;21015;-63
2022/01/04 00:44:50;;;;;;;8.60;5.50;;;;;;;20.16;38.84;98942.19;5132011;27;20043;-63
2022/01/04 00:47:16;;;;;;;7.10;5.13;;;;;;;20.16;38.94;98944.97;5132073;28;20131;-63
2022/01/04 00:49:41;;;;;;;9.20;6.07;;;;;;;20.16;38.84;98936.63;5132004;27;20083;-63
2022/01/04 00:52:12;;;;;;;7.60;5.45;;;;;;;20.16;38.77;98919.16;5131309;27;20070;-63
2022/01/04 00:54:38;;;;;;;7.45;5.82;;;;;;;20.17;38.74;98918.00;5131960;27;20050;-63
2022/01/04 00:57:04;;;;;;;8.10;5.60;;;;;;;20.15;38.97;98900.91;5132044;27;20051;-63
2022/01/04 00:59:29;;;;;;;8.30;5.75;;;;;;;20.15;38.98;98889.81;5131794;27;20035;-63
2022/01/04 01:01:55;;;;;;;8.45;6.20;;;;;;;20.14;38.82;98902.88;5131953;27;20035;-63
2022/01/04 01:04:20;;;;;;;8.55;6.15;;;;;;;20.14;38.89;98902.88;5131871;27;20050;-63
2022/01/04 01:06:46;;;;;;;7.72;5.47;;;;;;;20.14;38.92;98882.63;5131997;27;20031;-63
2022/01/04 01:09:11;;;;;;;9.30;6.25;;;;;;;20.14;39.02;98879.84;5131856;27;20031;-63
2022/01/04 01:11:37;;;;;;;8.52;5.95;;;;;;;20.14;39.05;98880.66;5131636;27;20059;-63
2022/01/04 01:14:02;;;;;;;8.73;5.88;;;;;;;20.14;38.85;98871.53;5131584;28;20039;-63
2022/01/04 01:16:28;;;;;;;8.55;6.07;;;;;;;20.13;38.92;98862.41;5131536;28;20108;-62
2022/01/04 01:18:53;;;;;;;7.90;5.85;;;;;;;20.14;38.98;98863.19;5131081;27;20043;-63
2022/01/04 01:21:20;;;;;;;8.80;6.10;;;;;;;20.12;38.98;98860.81;5131294;27;20039;-63
2022/01/04 01:23:46;;;;;;;7.82;6.32;;;;;;;20.15;38.96;98862.03;5131591;27;20047;-63
2022/01/04 01:26:11;;;;;;;8.63;6.20;;;;;;;20.13;38.99;98862.41;5130647;27;20047;-63
2022/01/04 01:28:37;;;;;;;8.48;5.88;;;;;;;20.15;39.11;98857.28;5131606;27;20413;-63
2022/01/04 01:31:03;;;;;;;9.02;6.50;;;;;;;20.15;38.97;98842.63;5131593;27;20069;-63
2022/01/04 01:33:28;;;;;;;8.88;6.10;;;;;;;20.14;39.04;98847.34;5131484;27;20075;-63
2022/01/04 01:35:57;;;;;;;8.95;5.47;;;;;;;20.14;38.94;98858.44;5131410;27;20035;-63
2022/01/04 01:38:24;;;;;;;8.80;6.43;;;;;;;20.13;39.10;98851.31;5131393;27;20038;-63
2022/01/04 01:40:51;;;;;;;8.00;5.53;;;;;;;20.13;38.93;98837.41;5131176;27;20084;-63
2022/01/04 01:43:16;;;;;;;8.07;5.63;;;;;;;20.15;39.00;98845.38;5131198;27;20083;-63
2022/01/04 01:45:42;;;;;;;8.18;6.00;;;;;;;20.14;39.03;98843.75;5131125;27;20082;-63
2022/01/04 01:48:08;;;;;;;8.02;6.00;;;;;;;20.14;39.03;98846.53;5130866;28;20078;-63
2022/01/04 01:50:33;;;;;;;8.32;6.15;;;;;;;20.15;39.15;98835.06;5130978;27;20539;-63
2022/01/04 01:52:59;;;;;;;8.68;6.10;;;;;;;20.15;39.05;98828.72;5130345;27;20468;-63
2022/01/04 01:55:25;;;;;;;8.57;5.90;;;;;;;20.13;39.20;98831.88;5130920;28;20047;-63
2022/01/04 01:57:51;;;;;;;7.78;6.03;;;;;;;20.12;39.07;98830.28;5131047;27;20076;-63
2022/01/04 02:00:21;;;;;;;8.07;5.78;;;;;;;20.13;39.11;98831.88;5130852;27;20039;-63
2022/01/04 02:02:46;;;;;;;8.70;6.00;;;;;;;20.12;39.08;98826.69;5130781;27;20043;-64
2022/01/04 02:05:12;;;;;;;8.82;6.03;;;;;;;20.12;39.08;98819.16;5131350;28;20040;-63
2022/01/04 02:07:40;;;;;;;8.25;5.97;;;;;;;20.11;39.11;98823.13;5131124;27;20451;-56
2022/01/04 02:10:07;;;;;;;9.40;6.45;;;;;;;20.13;38.93;98823.53;5130691;27;20060;-56
2022/01/04 02:12:35;;;;;;;8.10;5.95;;;;;;;20.12;38.99;98829.47;5130491;27;20081;-57
2022/01/04 02:15:02;;;;;;;7.43;5.72;;;;;;;20.11;39.13;98823.13;5130709;28;20096;-56
2022/01/04 02:17:28;;;;;;;8.57;6.15;;;;;;;20.09;39.25;98808.84;5130614;27;20035;-56
2022/01/04 02:19:58;;;;;;;7.63;5.72;;;;;;;20.12;39.02;98799.72;5130715;27;20053;-56
2022/01/04 02:22:24;;;;;;;8.65;6.13;;;;;;;20.12;39.07;98808.06;5130683;27;20477;-56
2022/01/04 02:24:49;;;;;;;7.85;5.40;;;;;;;20.13;38.96;98804.09;5130522;27;20079;-56
2022/01/04 02:27:15;;;;;;;8.30;5.90;;;;;;;20.14;39.09;98797.38;5130603;28;20372;-63
2022/01/04 02:29:41;;;;;;;7.50;5.80;;;;;;;20.12;39.10;98794.19;5128914;28;20039;-63
2022/01/04 02:32:08;;;;;;;7.75;5.65;;;;;;;20.12;38.98;98794.19;5130362;27;20047;-63
2022/01/04 02:34:33;;;;;;;8.73;6.18;;;;;;;20.13;39.13;98781.88;5130719;27;20039;-63
2022/01/04 02:36:59;;;;;;;8.88;6.30;;;;;;;20.13;39.03;98770.78;5130421;27;20104;-62
2022/01/04 02:39:25;;;;;;;8.63;5.90;;;;;;;20.14;38.97;98766.03;5130553;27;20051;-63
2022/01/04 02:41:50;;;;;;;8.10;5.95;;;;;;;20.12;39.22;98758.09;5130572;27;20043;-56
2022/01/04 02:44:16;;;;;;;8.52;6.20;;;;;;;20.13;39.15;98770.78;5130390;27;20043;-56
2022/01/04 02:46:42;;;;;;;7.15;5.13;;;;;;;20.14;39.12;98766.81;5130382;27;20499;-56
2022/01/04 02:49:07;;;;;;;7.32;5.38;;;;;;;20.12;39.04;98760.88;5130350;27;20551;-56
2022/01/04 02:51:33;;;;;;;7.93;5.60;;;;;;;20.13;38.99;98753.31;5129174;27;20043;-56
2022/01/04 02:53:59;;;;;;;8.05;5.55;;;;;;;20.08;39.04;98750.94;5130208;27;20490;-56
2022/01/04 02:56:24;;;;;;;6.97;5.18;;;;;;;20.13;39.03;98756.09;5130182;27;20058;-56
2022/01/04 02:58:50;;;;;;;6.78;5.15;;;;;;;20.13;39.07;98742.22;5130330;27;20409;-56
2022/01/04 03:01:15;;;;;;;8.35;5.97;;;;;;;20.10;39.17;98727.16;5129967;27;20088;-63
2022/01/04 03:03:41;;;;;;;6.57;4.93;;;;;;;20.12;39.16;98726.75;5130165;27;20048;-63
2022/01/04 03:06:06;;;;;;;7.47;5.57;;;;;;;20.12;38.98;98713.66;5130316;28;20043;-63
2022/01/04 03:08:32;;;;;;;7.50;5.60;;;;;;;20.13;38.96;98729.13;5129974;27;20384;-56
2022/01/04 03:10:58;;;;;;;8.00;5.15;;;;;;;20.10;39.03;98716.03;5130113;27;20054;-56
2022/01/04 03:13:23;;;;;;;6.97;4.68;;;;;;;20.10;39.13;98707.72;5130114;27;20070;-56
2022/01/04 03:15:48;;;;;;;7.38;5.32;;;;;;;20.12;39.09;98707.31;5129807;28;20418;-56
2022/01/04 03:18:14;;;;;;;6.57;5.03;;;;;;;20.10;38.94;98704.94;5129941;27;20129;-56
2022/01/04 03:20:40;;;;;;;7.15;4.85;;;;;;;20.14;38.83;98707.72;5129878;27;20511;-56
2022/01/04 03:23:09;;;;;;;6.18;4.50;;;;;;;20.13;38.97;98717.25;5129845;28;20039;-56
2022/01/04 03:25:35;;;;;;;7.55;5.03;;;;;;;20.13;39.07;98712.47;5130120;27;20047;-56
2022/01/04 03:28:02;;;;;;;6.68;4.68;;;;;;;20.12;38.81;98699.78;5129865;27;20134;-56
2022/01/04 03:30:28;;;;;;;5.78;4.30;;;;;;;20.11;38.87;98700.97;5129459;27;20051;-56
2022/01/04 03:32:54;;;;;;;6.15;4.15;;;;;;;20.11;38.91;98703.75;5129663;28;20035;-56
2022/01/04 03:35:21;;;;;;;6.78;4.75;;;;;;;20.11;39.05;98700.19;5129760;27;20557;-56
2022/01/04 03:37:47;;;;;;;7.10;4.65;;;;;;;20.10;39.03;98685.50;5129717;27;20051;-56
2022/01/04 03:40:13;;;;;;;5.55;4.20;;;;;;;20.10;39.10;98682.72;5129642;27;20045;-56
2022/01/04 03:42:39;;;;;;;6.10;4.32;;;;;;;20.11;38.86;98692.66;5130319;27;20036;-56
2022/01/04 03:45:05;;;;;;;5.75;4.57;;;;;;;20.12;38.88;98682.34;5133001;28;20055;-62
2022/01/04 03:47:31;;;;;;;6.53;4.70;;;;;;;20.10;38.96;98671.63;5132969;27;20054;-56
2022/01/04 03:49:56;;;;;;;6.25;4.47;;;;;;;20.10;38.98;98666.06;5133227;28;20415;-56
2022/01/04 03:52:22;;;;;;;7.15;4.93;;;;;;;20.12;38.92;98679.56;5132027;27;20047;-56
2022/01/04 03:54:47;;;;;;;5.90;4.53;;;;;;;20.09;39.09;98681.13;5132879;27;20415;-56
2022/01/04 03:57:13;;;;;;;5.88;4.53;;;;;;;20.11;39.07;98683.53;5133058;27;20064;-56
2022/01/04 03:59:38;;;;;;;5.85;4.55;;;;;;;20.10;38.91;98679.16;5132887;27;20515;-56
2022/01/04 04:02:04;;;;;;;6.93;5.03;;;;;;;20.10;38.97;98671.63;5132410;28;20071;-56
2022/01/04 04:04:30;;;;;;;6.97;4.93;;;;;;;20.09;39.03;98670.03;5132919;27;20482;-56
2022/01/04 04:06:55;;;;;;;7.13;4.88;;;;;;;20.07;39.09;98655.72;5132726;28;20055;-63
2022/01/04 04:09:22;;;;;;;6.18;4.57;;;;;;;20.07;39.04;98658.50;5132606;27;20038;-62
2022/01/04 04:11:47;;;;;;;6.75;4.90;;;;;;;20.08;39.13;98673.19;5132500;27;20043;-63
2022/01/04 04:14:13;;;;;;;7.10;4.78;;;;;;;20.10;38.96;98659.72;5132671;27;20039;-63
2022/01/04 04:16:39;;;;;;;6.93;4.90;;;;;;;20.09;38.88;98663.69;5131940;28;20039;-63
2022/01/04 04:19:04;;;;;;;6.75;4.88;;;;;;;20.08;38.95;98651.78;5132557;27;20048;-62
2022/01/04 04:21:30;;;;;;;6.95;4.70;;;;;;;20.08;39.06;98651.78;5132523;28;20054;-63
2022/01/04 04:23:56;;;;;;;6.45;5.03;;;;;;;20.04;39.03;98635.09;5132561;27;20047;-63
2022/01/04 04:26:21;;;;;;;6.97;4.72;;;;;;;20.05;38.95;98641.44;5132690;27;20553;-63
2022/01/04 04:28:46;;;;;;;6.47;4.60;;;;;;;20.06;39.04;98635.50;5132585;27;20047;-63
2022/01/04 04:31:12;;;;;;;6.88;4.90;;;;;;;20.06;39.02;98638.28;5132198;27;20502;-63
2022/01/04 04:33:38;;;;;;;6.63;4.38;;;;;;;20.07;39.19;98633.50;5132105;27;20119;-63
2022/01/04 04:36:03;;;;;;;6.50;4.47;;;;;;;20.06;38.95;98631.94;5132178;27;20471;-63
2022/01/04 04:38:29;;;;;;;5.63;4.43;;;;;;;20.08;38.98;98635.13;5131382;27;20459;-56
2022/01/04 04:40:54;;;;;;;7.43;5.10;;;;;;;20.07;38.98;98627.97;5132302;27;20039;-62
2022/01/04 04:43:20;;;;;;;6.25;4.80;;;;;;;20.04;39.10;98628.75;5132320;27;20043;-63
2022/01/04 04:45:45;;;;;;;6.10;4.80;;;;;;;20.07;39.02;98627.97;5132131;27;20043;-63
2022/01/04 04:48:11;;;;;;;6.95;4.95;;;;;;;20.07;39.00;98622.41;5132044;27;20080;-63
2022/01/04 04:50:36;;;;;;;6.38;4.88;;;;;;;20.08;39.19;98623.22;5131052;27;20460;-63
2022/01/04 04:53:02;;;;;;;6.22;4.63;;;;;;;20.07;39.05;98622.41;5132220;27;20433;-63
2022/01/04 04:55:28;;;;;;;6.30;4.97;;;;;;;20.08;39.16;98623.22;5130783;27;20498;-63
2022/01/04 04:57:53;;;;;;;6.63;4.60;;;;;;;20.08;39.18;98620.47;5132137;28;20035;-63
2022/01/04 05:00:19;;;;;;;5.60;4.10;;;;;;;20.07;39.27;98616.84;5131802;28;20138;-63
2022/01/04 05:02:44;;;;;;;5.80;4.40;;;;;;;20.06;39.09;98609.72;5131790;28;20035;-63
2022/01/04 05:05:10;;;;;;;6.15;4.88;;;;;;;20.08;39.32;98615.69;5131844;27;20072;-63
2022/01/04 05:07:36;;;;;;;6.97;4.50;;;;;;;20.09;39.16;98605.38;5131600;27;20043;-62
2022/01/04 05:10:04;;;;;;;6.43;4.60;;;;;;;20.10;39.21;98593.09;5131855;27;20043;-63
2022/01/04 05:12:29;;;;;;;5.30;4.22;;;;;;;20.09;39.41;98597.84;5131633;27;20533;-63
2022/01/04 05:14:55;;;;;;;7.07;4.68;;;;;;;20.09;39.41;98594.28;5131618;27;20044;-63
2022/01/04 05:17:20;;;;;;;5.53;4.30;;;;;;;20.09;39.33;98592.31;5131942;27;20034;-62
2022/01/04 05:19:46;;;;;;;5.32;4.07;;;;;;;20.09;39.22;98595.06;5131646;28;20039;-63
2022/01/04 05:22:12;;;;;;;5.40;4.28;;;;;;;20.09;39.33;98586.75;5131663;28;20048;-63
2022/01/04 05:24:37;;;;;;;5.45;4.00;;;;;;;20.09;39.41;98585.97;5131565;28;20454;-63
2022/01/04 05:27:03;;;;;;;5.72;4.28;;;;;;;20.08;39.26;98584.38;5131428;28;20043;-63
2022/01/04 05:29:29;;;;;;;5.80;3.95;;;;;;;20.08;39.36;98582.38;5131574;27;20415;-63
2022/01/04 05:31:54;;;;;;;5.53;3.90;;;;;;;20.08;39.29;98574.06;5131385;27;20507;-63
2022/01/04 05:34:20;;;;;;;5.07;4.00;;;;;;;20.09;39.24;98583.97;5129414;28;20035;-63
2022/01/04 05:36:45;;;;;;;6.40;4.13;;;;;;;20.08;39.31;98574.06;5131418;27;20082;-63
2022/01/04 05:39:11;;;;;;;5.68;4.03;;;;;;;20.09;39.40;98569.28;5131414;27;20391;-63
2022/01/04 05:41:36;;;;;;;5.57;4.35;;;;;;;20.09;39.37;98564.53;5131502;27;20054;-63
2022/01/04 05:44:02;;;;;;;5.40;4.10;;;;;;;20.07;39.46;98572.44;5131181;28;20043;-63
2022/01/04 05:46:28;;;;;;;5.90;3.95;;;;;;;20.08;39.52;98568.50;5131433;27;20800;-63
2022/01/04 05:48:53;;;;;;;6.25;4.35;;;;;;;20.05;39.51;98570.06;5131198;27;20042;-63
2022/01/04 05:51:19;;;;;;;5.65;3.90;;;;;;;20.08;39.52;98573.25;5129599;27;20505;-63
2022/01/04 05:53:44;;;;;;;6.00;4.18;;;;;;;20.07;39.58;98569.66;5130965;27;20039;-63
2022/01/04 05:56:10;;;;;;;6.47;4.05;;;;;;;20.08;39.62;98576.03;5130622;27;20043;-63
2022/01/04 05:58:36;;;;;;;5.72;3.88;;;;;;;20.08;39.54;98568.50;5130655;28;20145;-63
2022/01/04 06:01:01;;;;;;;5.93;3.95;;;;;;;20.09;39.39;98564.53;5130611;27;20042;-63
2022/01/04 06:03:27;;;;;;;5.03;3.97;;;;;;;20.09;39.34;98561.75;5130911;28;20126;-63
2022/01/04 06:05:54;;;;;;;5.95;4.18;;;;;;;20.09;39.43;98552.66;5130388;27;20414;-63
2022/01/04 06:08:21;;;;;;;4.97;3.80;;;;;;;20.11;39.58;98550.25;5130795;27;20558;-63
2022/01/04 06:10:50;;;;;;;5.68;4.05;;;;;;;20.11;39.56;98553.03;5130757;27;20039;-63
2022/01/04 06:16:00;;;;;;;6.07;4.40;;;;;;;20.12;39.46;98552.63;5130891;28;20418;-63
2022/01/04 06:18:25;;;;;;;5.20;3.90;;;;;;;20.13;39.39;98540.34;5130749;28;20039;-63
2022/01/04 06:20:51;;;;;;;5.30;3.80;;;;;;;20.12;39.37;98547.09;5130676;27;20564;-64
2022/01/04 06:23:17;;;;;;;5.65;3.90;;;;;;;20.12;39.42;98535.19;5130672;27;20057;-63
2022/01/04 06:25:42;;;;;;;6.30;4.00;;;;;;;20.15;39.21;98542.75;5130361;27;20502;-63
2022/01/04 06:28:08;;;;;;;4.90;3.72;;;;;;;20.16;39.25;98524.91;5130356;27;20104;-63
2022/01/04 06:30:34;;;;;;;5.75;3.78;;;;;;;20.16;39.38;98519.34;5130359;28;20043;-63
2022/01/04 06:32:59;;;;;;;5.70;3.90;;;;;;;20.17;39.37;98516.19;5130639;27;20122;-63
2022/01/04 06:35:27;;;;;;;5.57;3.70;;;;;;;20.18;39.09;98528.88;5130511;27;20050;-62
2022/01/04 06:37:53;;;;;;;5.35;3.78;;;;;;;20.21;39.26;98511.41;5130147;27;20040;-62
2022/01/04 06:40:19;;;;;;;10.07;4.03;;;;;;;20.21;39.24;98511.41;5130370;27;20040;-65
2022/01/04 06:42:44;;;;;;;4.68;3.50;;;;;;;20.22;39.31;98513.03;5130173;27;20096;-65
2022/01/04 06:45:11;;;;;;;9.73;3.85;;;;;;;20.24;39.33;98518.97;5130024;27;20055;-65
2022/01/04 06:47:37;;;;;;;11.30;3.75;;;;;;;20.26;39.29;98502.72;5130029;27;20134;-64
2022/01/04 06:50:04;;;;;;;8.18;4.07;;;;;;;20.27;39.07;98495.16;5130207;27;20130;-65
2022/01/04 06:52:29;;;;;;;4.95;3.55;;;;;;;20.28;39.01;98480.88;5129292;27;20049;-64
2022/01/04 06:54:55;;;;;;;6.78;3.38;;;;;;;20.29;38.96;98476.94;5130229;27;20047;-65
2022/01/04 06:57:20;;;;;;;10.48;3.83;;;;;;;20.28;39.18;98468.97;5129964;27;20100;-64
2022/01/04 06:59:46;;;;;;;5.15;3.75;;;;;;;20.31;39.00;98474.56;5130064;28;20047;-65
2022/01/04 07:02:12;;;;;;;4.68;3.20;;;;;;;20.31;38.95;98474.56;5129913;27;20523;-55
2022/01/04 07:04:37;;;;;;;5.15;3.67;;;;;;;20.32;39.08;98475.34;5129889;27;20067;-56
2022/01/04 07:07:03;;;;;;;5.70;4.00;;;;;;;20.31;39.21;98474.56;5129966;28;20043;-66
2022/01/04 07:09:28;;;;;;;5.68;3.70;;;;;;;20.31;39.06;98476.53;5130349;27;20057;-66
2022/01/04 07:11:54;;;;;;;5.38;3.70;;;;;;;20.30;38.91;98469.41;5129944;27;20456;-66
2022/01/04 07:14:19;;;;;;;5.00;3.65;;;;;;;20.31;39.13;98463.44;5130468;27;20443;-66
2022/01/04 07:16:45;;;;;;;5.10;3.65;;;;;;;20.31;39.13;98460.69;5129687;27;20082;-65
2022/01/04 07:19:10;;;;;;;6.25;3.45;;;;;;;20.31;39.15;98448.78;5132962;27;20421;-65
2022/01/04 07:21:36;;;;;;;5.15;3.85;;;;;;;20.31;39.01;98457.91;5133386;27;20515;-64
2022/01/04 07:24:03;;;;;;;4.85;3.70;;;;;;;20.32;39.26;98456.72;5133654;27;20051;-65
2022/01/04 07:26:29;;;;;;;5.28;3.72;;;;;;;20.32;39.02;98450.34;5133414;27;20086;-64
2022/01/04 07:28:55;;;;;;;4.97;3.55;;;;;;;20.31;39.12;98463.44;5133212;27;20426;-64
2022/01/04 07:31:21;;;;;;;6.07;3.80;;;;;;;20.31;39.01;98459.88;5133140;27;20043;-65
2022/01/04 07:33:46;;;;;;;5.55;3.83;;;;;;;20.32;38.99;98456.72;5133353;27;20043;-65
2022/01/04 07:36:13;;;;;;;6.30;4.10;;;;;;;20.32;38.91;98456.72;5133153;27;20447;-65
2022/01/04 07:38:39;;;;;;;5.63;3.85;;;;;;;20.34;39.18;98462.66;5133144;27;20055;-65
2022/01/04 07:41:04;;;;;;;5.80;3.92;;;;;;;20.34;39.21;98454.31;5133003;27;20043;-65
2022/01/04 07:43:31;;;;;;;6.50;3.60;;;;;;;20.33;38.91;98455.50;5132881;27;20047;-65
2022/01/04 07:45:57;;;;;;;6.20;4.15;;;;;;;20.36;39.25;98462.28;5133016;27;20047;-55
2022/01/04 07:48:23;;;;;;;4.82;3.53;;;;;;;20.36;39.17;98470.63;5132800;27;20077;-55
2022/01/04 07:50:49;;;;;;;5.30;3.97;;;;;;;20.37;39.06;98479.72;5131780;27;20051;-56
2022/01/04 07:53:15;;;;;;;5.32;3.80;;;;;;;20.37;39.06;98486.09;5132607;27;20073;-56
2022/01/04 07:55:40;;;;;;;6.18;4.13;;;;;;;20.37;39.07;98485.28;5121727;27;20494;-56
2022/01/04 07:58:06;;;;;;;5.63;4.20;;;;;;;20.37;39.24;98479.72;5125999;27;20085;-53
2022/01/04 08:00:32;;;;;;;6.18;4.07;;;;;;;20.35;39.33;98467.00;5118504;28;20043;-58
2022/01/04 08:02:57;;;;;;;5.95;3.80;;;;;;;20.37;39.09;98460.28;5127240;27;20083;-58
2022/01/04 08:05:23;;;;;;;5.45;3.95;;;;;;;20.42;38.86;98459.88;5123746;28;20039;-58
2022/01/04 08:07:50;;;;;;;5.53;3.95;;;;;;;20.46;38.84;98460.72;5126957;27;20032;-58
2022/01/04 08:10:16;;;;;;;5.82;4.00;;;;;;;20.47;39.01;98467.88;5130432;27;20468;-58
2022/01/04 08:12:42;;;;;;;5.95;4.50;;;;;;;20.50;38.86;98472.63;5129133;27;20050;-58
2022/01/04 08:15:08;;;;;;;5.55;4.10;;;;;;;20.52;38.78;98476.59;5128168;27;20035;-58
2022/01/04 08:17:34;;;;;;;6.68;4.25;;;;;;;20.53;38.65;98474.63;5130572;27;20074;-58
2022/01/04 08:20:00;;;;;;;5.45;4.05;;;;;;;20.54;38.85;98473.44;5130298;27;20486;-58
2022/01/04 08:22:31;;;;;;;5.72;4.00;;;;;;;20.56;38.87;98473.81;5129840;27;20047;-58
2022/01/04 08:25:08;;;;;;;5.28;4.07;;;;;;;20.59;38.58;98468.28;5129527;27;20043;-58
2022/01/04 08:27:34;;;;;;;6.07;4.35;;;;;;;20.65;38.70;98474.25;5128798;28;20093;-58
2022/01/04 08:29:59;;;;;;;5.45;4.10;;;;;;;20.66;38.89;98463.91;5129766;27;20411;-56
2022/01/04 08:32:25;;;;;;;5.78;4.43;;;;;;;20.68;38.56;98456.75;5129225;28;20047;-56
2022/01/04 08:34:51;;;;;;;5.82;4.18;;;;;;;20.66;38.76;98450.81;5128941;27;20517;-56
2022/01/04 08:37:17;;;;;;;6.57;4.75;;;;;;;20.62;38.65;98452.78;5126203;28;20091;-56
2022/01/04 08:39:43;;;;;;;5.68;4.03;;;;;;;20.61;38.78;98460.34;5129838;27;20073;-56
2022/01/04 08:42:09;;;;;;;7.07;4.82;;;;;;;20.59;38.75;98456.38;5130390;27;20040;-65
2022/01/04 08:44:39;;;;;;;6.30;4.57;;;;;;;20.60;38.88;98460.72;5128342;28;20043;-65
2022/01/04 08:47:08;;;;;;;5.93;4.05;;;;;;;20.58;38.74;98458.34;5130592;27;20140;-56
2022/01/04 08:49:34;;;;;;;5.90;4.25;;;;;;;20.56;38.82;98460.72;5129965;28;20066;-56
2022/01/04 08:52:00;;;;;;;6.28;4.43;;;;;;;20.58;38.85;98454.78;5129922;27;20063;-57
2022/01/04 08:54:26;;;;;;;7.18;4.82;;;;;;;20.56;38.99;98455.16;5126149;27;20050;-56
2022/01/04 08:56:54;;;;;;;5.82;4.35;;;;;;;20.54;38.82;98463.09;5129905;27;20035;-56
2022/01/04 08:59:20;;;;;;;5.85;4.43;;;;;;;20.51;38.77;98460.34;5129838;27;20039;-56
2022/01/04 09:01:45;;;;;;;7.43;5.35;;;;;;;20.52;38.83;98464.69;5129040;27;20486;-56
2022/01/04 09:04:11;;;;;;;9.25;5.10;;;;;;;20.52;38.84;98462.72;5123455;27;20520;-56
2022/01/04 09:06:36;;;;;;;6.20;4.43;;;;;;;20.52;38.88;98456.38;5126339;28;20054;-56
2022/01/04 09:09:03;;;;;;;6.50;5.00;;;;;;;20.48;38.86;98455.56;5129584;27;20158;-56
2022/01/04 09:11:29;;;;;;;6.47;4.65;;;;;;;20.49;38.85;98465.47;5130065;27;20078;-56
2022/01/04 09:14:06;;;;;;;6.45;4.50;;;;;;;20.48;38.81;98452.78;5116050;27;20798;-56
2022/01/04 09:19:15;;;;;;;6.38;4.60;;;;;;;20.44;38.99;98443.63;5125742;28;20694;-56
2022/01/04 09:21:41;;;;;;;5.85;4.28;;;;;;;20.45;39.17;98448.03;5130230;28;20523;-56
2022/01/04 09:24:07;;;;;;;6.32;4.63;;;;;;;20.43;39.12;98450.34;5114024;28;20051;-56
2022/01/04 09:26:33;;;;;;;6.50;4.72;;;;;;;20.42;39.13;98443.22;5114445;28;20490;-56
2022/01/04 09:28:58;;;;;;;6.35;4.97;;;;;;;20.41;38.96;98441.63;5124212;28;20585;-56
2022/01/04 09:31:26;;;;;;;6.88;5.10;;;;;;;20.42;39.26;98449.56;5128938;27;20054;-65
2022/01/04 09:33:53;;;;;;;6.53;4.97;;;;;;;20.41;39.24;98439.66;5125823;28;20043;-65
2022/01/04 09:36:19;;;;;;;7.88;5.43;;;;;;;20.42;39.16;98440.44;5121784;27;20133;-65
2022/01/04 09:38:44;;;;;;;8.15;4.72;;;;;;;20.40;39.26;98426.94;5118093;27;20452;-65
2022/01/04 09:41:10;;;;;;;7.25;5.20;;;;;;;20.41;39.38;98431.31;5128081;27;20047;-65
2022/01/04 09:43:36;;;;;;;7.05;4.80;;;;;;;20.40;39.26;98429.72;5129017;27;20043;-65
2022/01/04 09:46:01;;;;;;;8.07;4.90;;;;;;;20.41;39.33;98419.41;5126911;27;20031;-64
2022/01/04 09:48:27;;;;;;;7.20;4.93;;;;;;;20.40;39.30;98415.06;5122564;27;20058;-65
2022/01/04 09:50:55;;;;;;;6.38;4.57;;;;;;;20.39;39.54;98405.94;5128082;27;20035;-65
2022/01/04 09:53:22;;;;;;;6.15;4.57;;;;;;;20.40;39.51;98410.28;5118431;27;20043;-65
2022/01/04 09:55:50;;;;;;;6.15;4.45;;;;;;;20.35;39.41;98397.59;5125047;27;20070;-65
2022/01/04 09:58:18;;;;;;;5.82;4.53;;;;;;;20.41;39.54;98405.53;5126448;27;20043;-65
2022/01/04 10:00:44;;;;;;;5.88;4.00;;;;;;;20.42;39.72;98401.56;5122340;28;20039;-56
2022/01/04 10:03:16;;;;;;;6.03;4.40;;;;;;;20.42;39.52;98399.56;5126269;28;20077;-56
2022/01/04 10:05:43;;;;;;;5.57;4.45;;;;;;;20.43;39.42;98389.25;5121845;28;20463;-56
2022/01/04 10:08:10;;;;;;;6.15;4.45;;;;;;;20.44;39.52;98390.88;5120830;27;20098;-56
2022/01/04 10:10:38;;;;;;;5.53;4.32;;;;;;;20.45;39.50;98392.47;5122608;27;20039;-56
2022/01/04 10:13:09;;;;;;;6.45;4.47;;;;;;;20.44;39.61;98388.09;5119063;27;20176;-56
2022/01/04 10:15:39;;;;;;;5.68;4.53;;;;;;;20.43;39.54;98384.53;5124343;27;20150;-56
2022/01/04 10:18:13;;;;;;;5.65;4.57;;;;;;;20.44;39.48;98375.03;5129870;27;20042;-56
2022/01/04 10:20:43;;;;;;;6.38;4.38;;;;;;;20.43;39.66;98372.59;5125102;28;20179;-56
2022/01/04 10:23:16;;;;;;;6.68;4.55;;;;;;;20.43;39.71;98369.81;5124223;28;20054;-56
2022/01/04 10:25:42;;;;;;;6.70;4.65;;;;;;;20.44;39.63;98379.75;5122778;28;20066;-56
2022/01/04 10:28:08;;;;;;;5.93;4.30;;;;;;;20.45;39.83;98375.81;5124509;27;20047;-56
2022/01/04 10:30:39;;;;;;;6.47;4.90;;;;;;;20.43;39.83;98362.31;5118713;28;20437;-64
2022/01/04 10:33:04;;;;;;;6.53;4.85;;;;;;;20.43;39.82;98355.91;5127387;28;20050;-65
2022/01/04 10:35:43;;;;;;;6.20;4.55;;;;;;;20.43;39.69;98351.19;5129185;28;20035;-56
2022/01/04 10:38:19;;;;;;;6.38;4.50;;;;;;;20.43;39.81;98353.97;5124840;27;20126;-56
2022/01/04 10:41:04;;;;;;;6.78;4.43;;;;;;;20.39;39.75;98338.47;5125461;27;20077;-56
2022/01/04 10:43:37;;;;;;;6.55;4.32;;;;;;;20.43;39.80;98342.03;5121741;28;20046;-56
2022/01/04 10:46:03;;;;;;;6.32;4.57;;;;;;;20.43;39.80;98342.03;5128155;27;20506;-56
2022/01/04 10:48:41;;;;;;;6.78;4.35;;;;;;;20.42;39.98;98335.69;5127425;27;20422;-57
2022/01/04 10:51:16;;;;;;;5.97;4.65;;;;;;;20.43;39.80;98337.31;5103665;28;20051;-56
2022/01/04 10:54:06;;;;;;;6.38;4.65;;;;;;;20.41;40.06;98333.31;5124373;28;20415;-56
2022/01/04 10:56:37;;;;;;;5.53;4.07;;;;;;;20.44;39.87;98326.97;5124458;28;21152;-57
2022/01/04 10:59:11;;;;;;;6.47;4.82;;;;;;;20.41;40.06;98317.44;5127882;28;20059;-56
2022/01/04 11:01:45;;;;;;;5.55;4.28;;;;;;;20.42;40.06;98316.25;5128073;28;20126;-65
2022/01/04 11:04:28;;;;;;;6.40;4.70;;;;;;;20.42;40.11;98307.91;5120065;28;20039;-65
2022/01/04 11:06:59;;;;;;;6.53;4.47;;;;;;;20.44;40.04;98307.53;5124629;28;20061;-64
2022/01/04 11:09:25;;;;;;;6.35;4.38;;;;;;;20.44;40.04;98302.81;5129649;28;20058;-64
2022/01/04 11:11:50;;;;;;;6.65;4.90;;;;;;;20.44;40.13;98291.69;5127009;28;20580;-64
2022/01/04 11:14:16;;;;;;;6.30;4.45;;;;;;;20.47;40.22;98290.09;5124614;27;20051;-65
2022/01/04 11:16:42;;;;;;;6.45;4.78;;;;;;;20.48;40.20;98291.66;5132180;27;20065;-65
2022/01/04 11:19:08;;;;;;;6.45;4.35;;;;;;;20.48;40.10;98281.34;5123764;27;20825;-65
2022/01/04 11:21:41;;;;;;;7.05;4.72;;;;;;;20.50;40.39;98289.28;5130144;28;20058;-64
2022/01/04 11:24:12;;;;;;;6.00;4.40;;;;;;;20.51;40.37;98280.56;5131706;27;20411;-65
2022/01/04 11:26:43;;;;;;;5.95;4.43;;;;;;;20.52;40.44;98284.13;5124878;28;20042;-64
2022/01/04 11:29:09;;;;;;;6.78;4.35;;;;;;;20.48;40.41;98270.25;5130447;27;20594;-65
2022/01/04 11:31:51;;;;;;;5.53;4.28;;;;;;;20.49;40.37;98271.03;5131770;27;20129;-65
2022/01/04 11:34:54;;;;;;;6.70;4.63;;;;;;;20.48;40.54;98261.13;5123113;28;20070;-66
2022/01/04 11:37:22;;;;;;;6.25;4.32;;;;;;;20.48;40.61;98244.47;5127581;28;20515;-64
2022/01/04 11:39:48;;;;;;;6.00;4.15;;;;;;;20.44;40.66;98236.16;5130103;27;20035;-56